Time;durP1;ratioP1;P1;durP2;ratioP2;P2;SDS_P1;SDS_P2;PMS_P1;PMS_P2;Temp;Humidity;BMP_temperature;BMP_pressure;BME280_temperature;BME280_humidity;BME280_pressure;Samples;Min_cycle;Max_cycle;Signal;HPM_P1;HPM_P2
2021/12/27 00:00:26;;;;;;;6.83;6.20;;;;;;;-3.43;100.00;99741.59;5091693;28;20201;-78
2021/12/27 00:02:56;;;;;;;5.20;4.70;;;;;;;-3.34;100.00;99737.47;5091709;28;20211;-78
2021/12/27 00:05:22;;;;;;;6.30;5.03;;;;;;;-3.25;100.00;99748.63;5091656;28;20170;-77
2021/12/27 00:07:50;;;;;;;7.33;6.70;;;;;;;-3.37;100.00;99735.28;5091589;28;20825;-78
2021/12/27 00:10:16;;;;;;;6.80;5.93;;;;;;;-3.34;100.00;99732.94;5091483;28;20173;-77
2021/12/27 00:12:42;;;;;;;6.17;5.60;;;;;;;-3.42;100.00;99730.69;5091829;28;20417;-78
2021/12/27 00:15:08;;;;;;;5.07;4.67;;;;;;;-3.40;100.00;99735.78;5091593;28;20454;-77
2021/12/27 00:17:34;;;;;;;7.73;6.70;;;;;;;-3.40;100.00;99727.78;5091732;28;20177;-78
2021/12/27 00:19:59;;;;;;;7.50;6.77;;;;;;;-3.41;100.00;99718.94;5091462;28;20938;-78
2021/12/27 00:22:25;;;;;;;8.03;6.03;;;;;;;-3.41;100.00;99720.81;5091678;28;20265;-77
2021/12/27 00:24:50;;;;;;;10.27;6.33;;;;;;;-3.42;100.00;99716.50;5091535;28;20251;-78
2021/12/27 00:27:17;;;;;;;8.93;7.23;;;;;;;-3.40;100.00;99714.41;5091621;28;20239;-78
2021/12/27 00:29:43;;;;;;;7.23;6.13;;;;;;;-3.43;100.00;99714.91;5091693;28;20179;-77
2021/12/27 00:32:09;;;;;;;6.20;5.67;;;;;;;-3.41;100.00;99702.13;5091317;28;20431;-77
2021/12/27 00:34:36;;;;;;;11.77;6.13;;;;;;;-3.42;100.00;99693.28;5091394;28;20416;-79
2021/12/27 00:37:03;;;;;;;6.93;6.23;;;;;;;-3.43;100.00;99688.19;5091327;28;20214;-78
2021/12/27 00:39:29;;;;;;;7.07;5.87;;;;;;;-3.41;100.00;99686.09;5091389;28;20497;-78
2021/12/27 00:41:54;;;;;;;8.80;6.37;;;;;;;-3.41;100.00;99686.91;5090047;28;20475;-77
2021/12/27 00:44:19;;;;;;;5.43;4.93;;;;;;;-3.35;100.00;99677.13;5091427;28;20170;-77
2021/12/27 00:46:45;;;;;;;6.33;5.73;;;;;;;-3.34;100.00;99681.41;5091037;28;20178;-78
2021/12/27 00:49:10;;;;;;;10.30;7.83;;;;;;;-3.38;100.00;99672.25;5091549;28;20564;-77
2021/12/27 00:51:35;;;;;;;8.53;6.80;;;;;;;-3.37;100.00;99671.22;5091552;28;20189;-77
2021/12/27 00:54:01;;;;;;;7.17;6.50;;;;;;;-3.35;100.00;99669.91;5092090;28;20182;-77
2021/12/27 00:56:26;;;;;;;6.93;6.23;;;;;;;-3.33;100.00;99662.50;5092186;28;20240;-77
2021/12/27 00:58:51;;;;;;;7.07;6.37;;;;;;;-3.29;100.00;99657.47;5091583;28;20499;-77
2021/12/27 01:01:17;;;;;;;10.27;6.37;;;;;;;-3.28;100.00;99666.31;5090844;28;20181;-77
2021/12/27 01:03:42;;;;;;;7.40;5.97;;;;;;;-3.30;100.00;99661.22;5090859;28;20173;-77
2021/12/27 01:06:07;;;;;;;6.40;5.67;;;;;;;-3.32;100.00;99668.66;5090736;28;20170;-77
2021/12/27 01:08:33;;;;;;;7.70;6.90;;;;;;;-3.27;100.00;99662.59;5090807;28;20195;-77
2021/12/27 01:11:10;;;;;;;7.97;6.60;;;;;;;-3.34;100.00;99668.06;5090726;28;20173;-78
2021/12/27 01:13:40;;;;;;;6.90;6.23;;;;;;;-3.41;100.00;99657.53;5090827;28;20184;-77
2021/12/27 01:18:33;;;;;;;7.07;6.50;;;;;;;-3.38;100.00;99659.72;5090766;28;20412;-78
2021/12/27 01:20:58;;;;;;;5.47;5.07;;;;;;;-3.31;100.00;99660.41;5090630;28;20484;-77
2021/12/27 01:23:24;;;;;;;5.53;5.00;;;;;;;-3.29;100.00;99654.81;5086885;28;20927;-77
2021/12/27 01:25:49;;;;;;;6.13;5.47;;;;;;;-3.33;100.00;99649.16;5090367;28;20204;-77
2021/12/27 01:28:16;;;;;;;8.40;7.20;;;;;;;-3.31;100.00;99644.38;5082090;28;20181;-77
2021/12/27 01:30:47;;;;;;;5.97;5.47;;;;;;;-3.25;100.00;99653.28;5089616;28;20252;-77
2021/12/27 01:33:14;;;;;;;8.40;7.50;;;;;;;-3.26;100.00;99651.66;5093961;28;20404;-77
2021/12/27 01:35:40;;;;;;;7.97;5.70;;;;;;;-3.24;100.00;99659.44;5094866;28;20505;-77
2021/12/27 01:38:06;;;;;;;5.60;5.00;;;;;;;-3.20;100.00;99656.03;5094531;28;20807;-78
2021/12/27 01:40:32;;;;;;;6.80;6.17;;;;;;;-3.25;100.00;99633.78;5094437;28;20370;-78
2021/12/27 01:43:02;;;;;;;8.33;5.80;;;;;;;-3.26;100.00;99638.31;5093177;28;20181;-78
2021/12/27 01:45:27;;;;;;;6.00;5.40;;;;;;;-3.25;100.00;99636.44;5094170;28;20744;-76
2021/12/27 01:47:53;;;;;;;6.93;6.23;;;;;;;-3.25;100.00;99644.47;5094295;28;20438;-78
2021/12/27 01:50:18;;;;;;;7.17;6.17;;;;;;;-3.23;100.00;99639.69;5094312;28;20196;-77
2021/12/27 01:52:43;;;;;;;3.57;3.27;;;;;;;-3.10;100.00;99648.19;5094258;28;20644;-77
2021/12/27 01:55:09;;;;;;;8.73;6.77;;;;;;;-3.17;100.00;99644.06;5094293;28;20207;-77
2021/12/27 01:57:34;;;;;;;5.93;4.90;;;;;;;-3.20;100.00;99640.00;5094102;28;20166;-77
2021/12/27 02:00:00;;;;;;;8.70;6.30;;;;;;;-3.22;100.00;99631.41;5094264;28;20212;-77
2021/12/27 02:02:25;;;;;;;7.13;6.17;;;;;;;-3.18;100.00;99631.75;5094188;28;20189;-77
2021/12/27 02:04:51;;;;;;;5.63;5.00;;;;;;;-3.18;100.00;99629.06;5094146;28;20169;-77
2021/12/27 02:07:16;;;;;;;7.77;6.33;;;;;;;-3.22;100.00;99623.41;5094319;28;20186;-78
2021/12/27 02:09:52;;;;;;;6.73;4.83;;;;;;;-3.26;100.00;99614.28;5094323;28;20178;-77
2021/12/27 02:12:18;;;;;;;6.30;5.80;;;;;;;-3.23;100.00;99623.66;5093762;28;20184;-78
2021/12/27 02:14:43;;;;;;;7.17;6.47;;;;;;;-3.26;100.00;99614.28;5093830;28;20432;-77
2021/12/27 02:17:09;;;;;;;5.30;4.90;;;;;;;-3.21;100.00;99617.00;5093844;28;20558;-77
2021/12/27 02:19:37;;;;;;;6.07;5.47;;;;;;;-3.24;100.00;99617.50;5094171;28;20702;-77
2021/12/27 02:22:03;;;;;;;5.47;5.03;;;;;;;-3.24;100.00;99619.38;5093662;28;20269;-77
2021/12/27 02:24:28;;;;;;;5.30;4.80;;;;;;;-3.26;100.00;99614.28;5092310;28;20503;-77
2021/12/27 02:26:53;;;;;;;5.83;5.30;;;;;;;-3.32;100.00;99616.06;5093505;28;20174;-77
2021/12/27 02:29:19;;;;;;;7.03;6.33;;;;;;;-3.32;100.00;99604.56;5093785;28;20182;-77
2021/12/27 02:31:45;;;;;;;7.07;6.20;;;;;;;-3.30;100.00;99615.81;5093369;28;20174;-79
2021/12/27 02:34:11;;;;;;;13.57;7.37;;;;;;;-3.36;100.00;99609.56;5092059;28;20208;-77
2021/12/27 02:36:36;;;;;;;6.43;5.83;;;;;;;-3.35;100.00;99605.03;5093167;28;20316;-77
2021/12/27 02:39:03;;;;;;;7.03;6.33;;;;;;;-3.33;100.00;99608.25;5093310;28;20208;-77
2021/12/27 02:41:28;;;;;;;5.63;5.13;;;;;;;-3.30;100.00;99611.28;5093028;28;20166;-77
2021/12/27 02:43:53;;;;;;;4.73;4.33;;;;;;;-3.37;100.00;99607.13;5093138;28;20507;-77
2021/12/27 02:46:19;;;;;;;6.20;5.60;;;;;;;-3.38;100.00;99595.63;5092999;28;20208;-78
2021/12/27 02:48:47;;;;;;;7.90;5.03;;;;;;;-3.35;100.00;99594.34;5093285;28;20201;-78
2021/12/27 02:51:14;;;;;;;4.77;4.27;;;;;;;-3.38;100.00;99590.28;5093074;28;20596;-77
2021/12/27 02:53:40;;;;;;;6.93;5.67;;;;;;;-3.37;100.00;99589.25;5092788;28;20789;-78
2021/12/27 02:56:06;;;;;;;5.43;4.87;;;;;;;-3.38;100.00;99589.50;5092755;28;20455;-77
2021/12/27 02:58:34;;;;;;;7.03;5.83;;;;;;;-3.33;100.00;99592.22;5091557;28;20174;-77
2021/12/27 03:01:08;;;;;;;7.43;6.73;;;;;;;-3.35;100.00;99589.00;5092770;28;20899;-78
2021/12/27 03:03:34;;;;;;;4.47;4.07;;;;;;;-3.32;100.00;99593.88;5092759;28;20422;-78
2021/12/27 03:06:00;;;;;;;7.33;6.63;;;;;;;-3.35;100.00;99581.00;5092508;28;20416;-77
2021/12/27 03:08:26;;;;;;;7.43;5.33;;;;;;;-3.36;100.00;99588.19;5092914;28;20174;-78
2021/12/27 03:10:55;;;;;;;5.87;5.37;;;;;;;-3.34;100.00;99579.94;5092820;28;20351;-77
2021/12/27 03:13:24;;;;;;;6.67;6.03;;;;;;;-3.27;100.00;99596.63;5092706;28;20446;-77
2021/12/27 03:15:52;;;;;;;6.43;5.63;;;;;;;-3.34;100.00;99579.94;5092337;28;21019;-77
2021/12/27 03:18:17;;;;;;;7.70;5.17;;;;;;;-3.24;100.00;99580.13;5091195;28;20843;-77
2021/12/27 03:20:43;;;;;;;6.77;6.07;;;;;;;-3.28;100.00;99587.00;5092428;28;20449;-77
2021/12/27 03:23:08;;;;;;;9.30;5.90;;;;;;;-3.27;100.00;99580.59;5092325;28;20195;-77
2021/12/27 03:25:34;;;;;;;5.93;5.03;;;;;;;-3.27;100.00;99571.78;5092313;28;20261;-77
2021/12/27 03:27:59;;;;;;;7.23;5.27;;;;;;;-3.31;100.00;99574.13;5092278;28;20209;-77
2021/12/27 03:30:26;;;;;;;8.47;6.10;;;;;;;-3.28;100.00;99573.66;5092441;28;20519;-78
2021/12/27 03:32:52;;;;;;;8.73;6.97;;;;;;;-3.32;100.00;99573.31;5092248;28;20521;-76
2021/12/27 03:35:25;;;;;;;7.03;6.43;;;;;;;-3.31;100.00;99569.59;5091856;28;20459;-78
2021/12/27 03:37:54;;;;;;;7.60;5.30;;;;;;;-3.29;100.00;99572.03;5092144;28;20477;-78
2021/12/27 03:40:20;;;;;;;5.93;5.40;;;;;;;-3.30;100.00;99578.41;5090765;28;20420;-77
2021/12/27 03:42:49;;;;;;;6.17;3.97;;;;;;;-3.23;100.00;99570.25;5091880;28;20416;-77
2021/12/27 03:45:20;;;;;;;6.53;5.93;;;;;;;-3.20;100.00;99575.09;5091829;28;20431;-77
2021/12/27 03:47:46;;;;;;;8.40;6.77;;;;;;;-3.24;100.00;99569.44;5091904;28;20438;-78
2021/12/27 03:50:11;;;;;;;6.57;5.97;;;;;;;-3.24;100.00;99564.09;5091918;28;20416;-78
2021/12/27 03:52:37;;;;;;;5.83;5.30;;;;;;;-3.18;100.00;99567.63;5091874;28;20613;-78
2021/12/27 03:55:04;;;;;;;5.60;5.07;;;;;;;-3.23;100.00;99562.22;5091050;28;20235;-78
2021/12/27 03:57:32;;;;;;;6.23;5.63;;;;;;;-3.22;100.00;99550.50;5091766;28;20176;-78
2021/12/27 04:02:41;;;;;;;6.20;5.60;;;;;;;-3.20;100.00;99557.19;5092037;28;20960;-78
2021/12/27 04:05:10;;;;;;;6.87;5.67;;;;;;;-3.16;100.00;99554.88;5091619;28;20407;-78
2021/12/27 04:07:38;;;;;;;8.10;7.30;;;;;;;-3.22;100.00;99545.97;5091681;28;20166;-77
2021/12/27 04:10:08;;;;;;;5.80;5.30;;;;;;;-3.17;100.00;99547.91;5091536;28;20412;-78
2021/12/27 04:12:34;;;;;;;7.33;6.67;;;;;;;-3.17;100.00;99543.38;5091421;28;20454;-78
2021/12/27 04:15:00;;;;;;;6.47;5.70;;;;;;;-3.15;100.00;99551.16;5091232;28;20461;-78
2021/12/27 04:17:26;;;;;;;8.30;6.20;;;;;;;-3.13;100.00;99544.50;5091490;28;20412;-78
2021/12/27 04:19:51;;;;;;;7.83;5.67;;;;;;;-3.13;100.00;99535.69;5091377;28;20538;-77
2021/12/27 04:22:17;;;;;;;7.07;6.37;;;;;;;-3.09;100.00;99539.47;5091384;28;20260;-78
2021/12/27 04:24:42;;;;;;;6.60;6.00;;;;;;;-3.16;100.00;99539.66;5090979;28;20178;-77
2021/12/27 04:27:07;;;;;;;6.43;5.83;;;;;;;-3.14;100.00;99540.22;5091202;28;20177;-77
2021/12/27 04:29:33;;;;;;;7.80;6.27;;;;;;;-3.13;100.00;99539.16;5091427;28;20278;-77
2021/12/27 04:31:58;;;;;;;8.70;6.00;;;;;;;-3.14;100.00;99523.38;5091391;28;20178;-77
2021/12/27 04:34:23;;;;;;;6.17;5.57;;;;;;;-3.11;100.00;99518.34;5091124;28;20637;-78
2021/12/27 04:36:49;;;;;;;10.50;7.80;;;;;;;-3.16;100.00;99517.47;5089737;28;20614;-77
2021/12/27 04:39:14;;;;;;;6.90;6.23;;;;;;;-3.11;100.00;99521.03;5091385;28;20169;-78
2021/12/27 04:41:39;;;;;;;6.63;5.87;;;;;;;-3.06;100.00;99520.28;5090963;28;20193;-78
2021/12/27 04:44:05;;;;;;;7.33;6.63;;;;;;;-3.05;100.00;99525.38;5091008;28;20650;-77
2021/12/27 04:46:31;;;;;;;5.73;5.23;;;;;;;-3.02;100.00;99526.78;5090968;28;20625;-77
2021/12/27 04:48:56;;;;;;;9.17;6.83;;;;;;;-3.04;100.00;99512.81;5091008;28;20579;-78
2021/12/27 04:51:22;;;;;;;9.13;7.40;;;;;;;-3.05;100.00;99508.53;5090883;28;20628;-78
2021/12/27 04:53:49;;;;;;;5.87;5.37;;;;;;;-2.94;100.00;99512.97;5090863;28;20170;-78
2021/12/27 04:56:15;;;;;;;6.07;5.47;;;;;;;-2.96;100.00;99511.63;5089240;28;20215;-77
2021/12/27 04:58:43;;;;;;;7.70;6.73;;;;;;;-2.92;100.00;99510.06;5090815;28;20416;-78
2021/12/27 05:01:09;;;;;;;8.03;7.27;;;;;;;-2.93;100.00;99503.91;5091258;28;20174;-76
2021/12/27 05:03:34;;;;;;;8.73;7.03;;;;;;;-2.89;100.00;99502.38;5090821;28;20756;-78
2021/12/27 05:06:00;;;;;;;6.80;6.13;;;;;;;-2.83;100.00;99503.25;5090625;28;20181;-78
2021/12/27 05:08:25;;;;;;;9.38;8.35;;;;;;;-2.86;100.00;99499.22;5094739;28;20405;-78
2021/12/27 05:10:50;;;;;;;8.70;6.93;;;;;;;-2.80;100.00;99502.75;5093700;28;20215;-77
2021/12/27 05:13:17;;;;;;;7.10;6.47;;;;;;;-2.76;100.00;99499.31;5094980;28;20178;-77
2021/12/27 05:15:43;;;;;;;6.97;6.27;;;;;;;-2.76;100.00;99496.66;5093433;28;20223;-77
2021/12/27 05:18:08;;;;;;;8.03;7.37;;;;;;;-2.80;100.00;99495.53;5094929;28;20419;-77
2021/12/27 05:20:34;;;;;;;6.30;4.73;;;;;;;-2.78;100.00;99493.44;5095188;28;20629;-77
2021/12/27 05:22:59;;;;;;;7.80;6.83;;;;;;;-2.80;100.00;99498.22;5095279;28;20185;-77
2021/12/27 05:25:24;;;;;;;7.57;6.37;;;;;;;-2.80;100.00;99487.53;5093295;28;20174;-77
2021/12/27 05:27:50;;;;;;;7.00;6.20;;;;;;;-2.79;100.00;99491.00;5094957;28;20222;-77
2021/12/27 05:30:16;;;;;;;10.63;7.67;;;;;;;-2.80;100.00;99492.06;5094627;28;20177;-77
2021/12/27 05:32:43;;;;;;;7.60;6.80;;;;;;;-2.76;100.00;99485.16;5094969;28;20190;-77
2021/12/27 05:35:09;;;;;;;6.30;5.73;;;;;;;-2.76;100.00;99487.81;5093039;28;20174;-77
2021/12/27 05:37:34;;;;;;;7.10;6.50;;;;;;;-2.75;100.00;99486.78;5094478;28;20427;-78
2021/12/27 05:40:05;;;;;;;5.90;5.43;;;;;;;-2.77;100.00;99491.56;5094547;28;20427;-78
2021/12/27 05:42:32;;;;;;;8.50;7.50;;;;;;;-2.75;100.00;99482.25;5094270;28;20178;-77
2021/12/27 05:44:57;;;;;;;6.27;5.77;;;;;;;-2.72;100.00;99481.75;5094229;28;20786;-78
2021/12/27 05:47:22;;;;;;;6.83;6.23;;;;;;;-2.72;100.00;99487.09;5094226;28;20420;-77
2021/12/27 05:49:48;;;;;;;6.00;4.43;;;;;;;-2.66;100.00;99489.84;5094562;28;20182;-77
2021/12/27 05:52:13;;;;;;;8.93;8.10;;;;;;;-2.71;100.00;99482.56;5094220;28;20269;-78
2021/12/27 05:54:39;;;;;;;8.17;7.27;;;;;;;-2.71;100.00;99470.00;5094133;28;20198;-78
2021/12/27 05:57:04;;;;;;;8.13;7.07;;;;;;;-2.71;100.00;99472.69;5094174;28;20209;-77
2021/12/27 05:59:29;;;;;;;8.10;7.40;;;;;;;-2.68;100.00;99459.88;5094167;28;20177;-76
2021/12/27 06:01:56;;;;;;;7.27;6.67;;;;;;;-2.66;100.00;99463.09;5092786;28;20203;-77
2021/12/27 06:04:21;;;;;;;9.37;8.47;;;;;;;-2.65;100.00;99456.69;5094016;28;20201;-77
2021/12/27 06:06:47;;;;;;;7.73;7.03;;;;;;;-2.65;100.00;99456.69;5092563;28;20910;-77
2021/12/27 06:09:12;;;;;;;7.43;6.73;;;;;;;-2.66;100.00;99455.09;5093968;28;20182;-78
2021/12/27 06:11:37;;;;;;;9.77;7.60;;;;;;;-2.65;100.00;99460.19;5093957;28;20185;-77
2021/12/27 06:14:03;;;;;;;8.27;7.37;;;;;;;-2.63;100.00;99458.06;5093915;28;20182;-79
2021/12/27 06:16:28;;;;;;;8.70;7.80;;;;;;;-2.64;100.00;99464.47;5093580;28;20525;-79
2021/12/27 06:18:54;;;;;;;9.30;7.37;;;;;;;-2.63;100.00;99462.59;5093666;28;20174;-77
2021/12/27 06:21:19;;;;;;;9.97;7.40;;;;;;;-2.60;100.00;99462.94;5092404;28;20190;-77
2021/12/27 06:23:46;;;;;;;6.97;6.27;;;;;;;-2.63;100.00;99466.06;5093638;28;20224;-77
2021/12/27 06:26:11;;;;;;;11.03;7.97;;;;;;;-2.61;100.00;99463.97;5093551;28;20169;-77
2021/12/27 06:28:38;;;;;;;12.80;7.30;;;;;;;-2.60;100.00;99456.78;5092321;28;20420;-77
2021/12/27 06:31:04;;;;;;;7.37;6.67;;;;;;;-2.62;100.00;99445.50;5093631;28;20170;-77
2021/12/27 06:33:30;;;;;;;8.00;7.30;;;;;;;-2.62;100.00;99445.50;5093448;28;20416;-77
2021/12/27 06:35:56;;;;;;;9.60;6.97;;;;;;;-2.59;100.00;99453.84;5093339;28;20205;-77
2021/12/27 06:38:21;;;;;;;7.50;6.70;;;;;;;-2.62;100.00;99438.28;5092355;28;20178;-77
2021/12/27 06:40:50;;;;;;;7.40;6.77;;;;;;;-2.55;100.00;99449.59;5093747;28;20186;-77
2021/12/27 06:43:16;;;;;;;8.57;7.67;;;;;;;-2.54;100.00;99455.75;5093034;28;20173;-78
2021/12/27 06:45:42;;;;;;;7.83;7.07;;;;;;;-2.57;100.00;99441.03;5092119;28;20428;-77
2021/12/27 06:48:08;;;;;;;9.33;7.97;;;;;;;-2.59;100.00;99448.50;5093845;28;20260;-77
2021/12/27 06:50:33;;;;;;;7.23;6.63;;;;;;;-2.56;100.00;99450.66;5093454;28;20854;-77
2021/12/27 06:52:59;;;;;;;9.17;6.97;;;;;;;-2.48;100.00;99442.19;5093300;28;20642;-77
2021/12/27 06:55:24;;;;;;;10.97;6.70;;;;;;;-2.53;100.00;99439.47;5093057;28;20272;-77
2021/12/27 06:57:50;;;;;;;9.77;7.33;;;;;;;-2.57;100.00;99443.72;5093622;28;20166;-78
2021/12/27 07:00:18;;;;;;;7.17;6.47;;;;;;;-2.59;100.00;99443.16;5093274;28;20622;-77
2021/12/27 07:02:44;;;;;;;8.03;7.20;;;;;;;-2.57;100.00;99435.69;5091755;28;20186;-77
2021/12/27 07:05:10;;;;;;;6.90;6.30;;;;;;;-2.57;100.00;99434.88;5091200;28;20424;-77
2021/12/27 07:07:36;;;;;;;7.77;7.07;;;;;;;-2.51;100.00;99436.53;5093596;28;20178;-76
2021/12/27 07:10:07;;;;;;;8.07;6.93;;;;;;;-2.51;100.00;99440.03;5093892;28;20934;-76
2021/12/27 07:12:33;;;;;;;11.97;7.87;;;;;;;-2.48;100.00;99433.34;5094381;28;20170;-77
2021/12/27 07:14:58;;;;;;;7.83;7.13;;;;;;;-2.51;100.00;99428.53;5093929;28;20422;-77
2021/12/27 07:17:24;;;;;;;10.60;7.90;;;;;;;-2.49;100.00;99435.22;5093103;28;20467;-77
2021/12/27 07:19:49;;;;;;;8.87;8.03;;;;;;;-2.50;100.00;99441.63;5093072;28;20249;-76
2021/12/27 07:22:15;;;;;;;7.93;7.17;;;;;;;-2.51;100.00;99439.22;5092883;28;20197;-76
2021/12/27 07:24:41;;;;;;;7.63;6.93;;;;;;;-2.47;100.00;99437.66;5092727;28;20174;-77
2021/12/27 07:27:06;;;;;;;8.17;7.37;;;;;;;-2.42;100.00;99440.41;5092905;28;20649;-77
2021/12/27 07:29:32;;;;;;;7.77;7.17;;;;;;;-2.42;100.00;99451.09;5091818;28;20177;-77
2021/12/27 07:31:57;;;;;;;13.47;8.30;;;;;;;-2.36;100.00;99454.63;5093369;28;20178;-79
2021/12/27 07:34:24;;;;;;;6.83;6.13;;;;;;;-2.38;100.00;99444.19;5092854;28;20188;-78
2021/12/27 07:36:51;;;;;;;10.07;6.73;;;;;;;-2.37;100.00;99444.97;5092934;28;20238;-76
2021/12/27 07:39:18;;;;;;;9.47;7.47;;;;;;;-2.36;100.00;99450.06;5091958;28;20939;-77
2021/12/27 07:41:43;;;;;;;16.70;15.00;;;;;;;-2.38;100.00;99452.19;5092856;28;20413;-76
2021/12/27 07:44:08;;;;;;;10.93;8.83;;;;;;;-2.34;100.00;99449.81;5092998;28;20273;-75
2021/12/27 07:46:35;;;;;;;9.67;8.83;;;;;;;-2.33;100.00;99454.13;5093276;28;20222;-75
2021/12/27 07:49:02;;;;;;;12.70;9.27;;;;;;;-2.35;100.00;99446.34;5096726;28;20235;-75
2021/12/27 07:51:28;;;;;;;10.47;9.57;;;;;;;-2.30;100.00;99440.25;5091730;28;20532;-75
2021/12/27 07:53:53;;;;;;;9.27;8.23;;;;;;;-2.32;100.00;99437.81;5091861;28;20502;-75
2021/12/27 07:56:18;;;;;;;13.27;9.27;;;;;;;-2.29;100.00;99436.53;5091616;28;20201;-75
2021/12/27 07:58:44;;;;;;;7.80;7.23;;;;;;;-2.25;100.00;99451.00;5092279;28;20174;-75
2021/12/27 08:01:09;;;;;;;11.27;8.47;;;;;;;-2.22;100.00;99442.47;5091698;28;20174;-78
2021/12/27 08:03:34;;;;;;;9.30;8.50;;;;;;;-2.28;100.00;99436.28;5091651;28;20229;-78
2021/12/27 08:06:00;;;;;;;9.60;8.60;;;;;;;-2.30;100.00;99440.25;5091503;28;20593;-76
2021/12/27 08:08:26;;;;;;;10.77;9.70;;;;;;;-2.29;100.00;99433.84;5091556;28;20828;-77
2021/12/27 08:10:51;;;;;;;8.57;7.77;;;;;;;-2.25;100.00;99441.09;5091568;28;20178;-78
2021/12/27 08:13:16;;;;;;;9.57;8.67;;;;;;;-2.24;100.00;99434.69;5090065;28;20212;-78
2021/12/27 08:15:42;;;;;;;10.00;7.67;;;;;;;-2.19;100.00;99437.41;5091315;28;20311;-77
2021/12/27 08:18:07;;;;;;;7.93;7.23;;;;;;;-2.18;100.00;99443.56;5090730;28;20533;-75
2021/12/27 08:20:33;;;;;;;8.17;7.47;;;;;;;-2.10;100.00;99448.47;5091305;28;20178;-76
2021/12/27 08:22:58;;;;;;;10.70;9.60;;;;;;;-2.13;100.00;99432.94;5091224;28;20215;-76
2021/12/27 08:25:23;;;;;;;12.73;9.10;;;;;;;-2.12;100.00;99445.25;5091157;28;20193;-76
2021/12/27 08:27:50;;;;;;;10.23;9.33;;;;;;;-2.12;100.00;99440.72;5091313;28;20181;-75
2021/12/27 08:30:17;;;;;;;10.93;9.23;;;;;;;-2.06;100.00;99433.53;5090874;28;20718;-75
2021/12/27 08:32:45;;;;;;;9.73;8.50;;;;;;;-2.03;100.00;99438.38;5090949;28;20431;-75
2021/12/27 08:35:11;;;;;;;10.80;9.73;;;;;;;-2.06;100.00;99436.19;5090402;28;20182;-75
2021/12/27 08:37:38;;;;;;;9.53;8.30;;;;;;;-2.03;100.00;99424.19;5090070;28;20737;-75
2021/12/27 08:40:05;;;;;;;9.63;8.67;;;;;;;-2.00;100.00;99429.03;5091269;28;20416;-75
2021/12/27 08:42:31;;;;;;;13.27;8.33;;;;;;;-1.93;100.00;99430.44;5091244;28;20423;-75
2021/12/27 08:44:57;;;;;;;12.03;9.80;;;;;;;-1.89;100.00;99436.09;5090961;28;20438;-75
2021/12/27 08:47:22;;;;;;;10.87;9.23;;;;;;;-1.85;100.00;99423.81;5091084;28;20228;-75
2021/12/27 08:49:48;;;;;;;11.67;10.50;;;;;;;-1.87;100.00;99429.44;5090861;28;20280;-75
2021/12/27 08:52:14;;;;;;;10.67;9.40;;;;;;;-1.77;100.00;99417.19;5091191;28;20178;-78
2021/12/27 08:54:39;;;;;;;10.43;9.37;;;;;;;-1.78;100.00;99424.41;5091070;28;20176;-76
2021/12/27 08:57:09;;;;;;;12.87;11.27;;;;;;;-1.72;100.00;99426.06;5090752;28;20209;-75
2021/12/27 08:59:34;;;;;;;13.23;10.67;;;;;;;-1.71;100.00;99421.53;5090998;28;20256;-76
2021/12/27 09:01:59;;;;;;;10.47;9.50;;;;;;;-1.71;100.00;99421.53;5090717;28;20427;-76
2021/12/27 09:04:25;;;;;;;10.77;9.67;;;;;;;-1.73;100.00;99419.09;5090878;28;20176;-75
2021/12/27 09:06:50;;;;;;;12.77;9.03;;;;;;;-1.73;100.00;99412.94;5090650;28;20174;-76
2021/12/27 09:09:16;;;;;;;10.37;9.37;;;;;;;-1.71;100.00;99418.84;5090906;28;20170;-74
2021/12/27 09:11:43;;;;;;;16.47;9.77;;;;;;;-1.69;100.00;99414.03;5089318;28;20205;-84
2021/12/27 09:14:09;;;;;;;11.67;9.77;;;;;;;-1.66;100.00;99422.34;5090843;28;20200;-75
2021/12/27 09:16:34;;;;;;;9.63;8.67;;;;;;;-1.65;100.00;99423.97;5090319;28;20495;-76
2021/12/27 09:18:59;;;;;;;17.40;11.07;;;;;;;-1.65;100.00;99421.28;5090798;28;20257;-75
2021/12/27 09:21:25;;;;;;;11.97;9.93;;;;;;;-1.60;100.00;99423.19;5090710;28;20261;-76
2021/12/27 09:23:51;;;;;;;10.27;8.47;;;;;;;-1.57;100.00;99423.50;5090674;28;20170;-76
2021/12/27 09:26:17;;;;;;;11.60;9.80;;;;;;;-1.50;100.00;99420.59;5090497;28;20255;-75
2021/12/27 09:28:42;;;;;;;10.47;9.13;;;;;;;-1.42;100.00;99430.84;5090926;28;20261;-75
2021/12/27 09:31:07;;;;;;;16.87;11.57;;;;;;;-1.43;100.00;99423.06;5090197;28;20238;-75
2021/12/27 09:33:33;;;;;;;12.17;10.67;;;;;;;-1.44;100.00;99422.25;5090103;28;20202;-76
2021/12/27 09:35:58;;;;;;;9.10;8.27;;;;;;;-1.44;100.00;99422.25;5089860;28;20202;-76
2021/12/27 09:38:24;;;;;;;12.77;9.77;;;;;;;-1.38;100.00;99423.09;5090068;28;20178;-73
2021/12/27 09:40:49;;;;;;;11.90;9.63;;;;;;;-1.32;100.00;99420.19;5090171;28;20198;-74
2021/12/27 09:43:15;;;;;;;12.63;10.67;;;;;;;-1.33;100.00;99423.91;5090020;28;20211;-74
2021/12/27 09:45:41;;;;;;;14.30;10.43;;;;;;;-1.29;100.00;99421.56;5090077;28;20178;-74
2021/12/27 09:48:06;;;;;;;15.33;9.33;;;;;;;-1.31;100.00;99411.06;5090320;28;20181;-73
2021/12/27 09:50:37;;;;;;;11.53;9.47;;;;;;;-1.31;100.00;99411.06;5088785;28;20178;-74
2021/12/27 09:53:02;;;;;;;11.50;10.03;;;;;;;-1.31;100.00;99411.06;5091281;28;20192;-74
2021/12/27 09:55:28;;;;;;;12.00;8.87;;;;;;;-1.24;100.00;99417.03;5093569;28;20412;-74
2021/12/27 09:57:55;;;;;;;10.27;9.17;;;;;;;-1.18;100.00;99422.41;5093783;28;20269;-73
2021/12/27 10:00:21;;;;;;;11.50;10.37;;;;;;;-1.17;100.00;99407.94;5094031;28;20181;-73
2021/12/27 10:02:50;;;;;;;13.53;10.73;;;;;;;-1.14;100.00;99415.47;5093624;28;20422;-74
2021/12/27 10:05:16;;;;;;;11.10;9.70;;;;;;;-1.17;100.00;99405.25;5093349;28;20428;-74
2021/12/27 10:07:41;;;;;;;17.20;9.63;;;;;;;-1.14;100.00;99410.13;5094046;28;20511;-74
2021/12/27 10:10:09;;;;;;;15.07;10.93;;;;;;;-1.13;100.00;99409.84;5093489;28;20261;-74
2021/12/27 10:12:34;;;;;;;12.73;10.00;;;;;;;-1.06;100.00;99417.66;5093351;28;20178;-73
2021/12/27 10:15:03;;;;;;;12.57;10.97;;;;;;;-1.13;100.00;99401.00;5093225;28;20938;-74
2021/12/27 10:17:32;;;;;;;12.23;10.93;;;;;;;-1.17;100.00;99400.69;5093318;28;20686;-74
2021/12/27 10:20:10;;;;;;;12.60;10.90;;;;;;;-1.16;100.00;99396.16;5093458;28;20412;-74
2021/12/27 10:22:39;;;;;;;14.13;10.70;;;;;;;-1.16;100.00;99402.31;5093410;28;20427;-73
2021/12/27 10:25:15;;;;;;;11.63;9.80;;;;;;;-1.07;100.00;99386.56;5093162;28;20972;-73
2021/12/27 10:27:41;;;;;;;12.70;11.03;;;;;;;-1.06;100.00;99390.84;5093304;28;20418;-73
2021/12/27 10:30:13;;;;;;;12.27;10.97;;;;;;;-0.99;100.00;99375.34;5093130;28;20420;-73
2021/12/27 10:32:38;;;;;;;13.63;9.77;;;;;;;-0.92;100.00;99383.94;5093747;28;20443;-73
2021/12/27 10:35:09;;;;;;;13.93;12.20;;;;;;;-0.88;100.00;99384.22;5093264;28;20450;-73
2021/12/27 10:37:36;;;;;;;12.80;11.57;;;;;;;-0.91;100.00;99382.88;5093491;28;20286;-73
2021/12/27 10:40:06;;;;;;;15.13;12.43;;;;;;;-0.83;100.00;99377.00;5093505;28;20503;-73
2021/12/27 10:42:39;;;;;;;10.33;9.30;;;;;;;-0.76;100.00;99384.81;5092567;28;20428;-73
2021/12/27 10:45:18;;;;;;;13.80;11.60;;;;;;;-0.65;100.00;99379.22;5092599;28;20412;-73
2021/12/27 10:47:54;;;;;;;11.27;10.07;;;;;;;-0.55;100.00;99365.03;5092943;28;20686;-73
2021/12/27 10:50:23;;;;;;;19.37;10.67;;;;;;;-0.53;100.00;99360.19;5093135;28;20435;-73
2021/12/27 10:52:48;;;;;;;11.50;10.50;;;;;;;-0.55;100.00;99359.66;5092795;28;20420;-73
2021/12/27 10:55:17;;;;;;;14.10;12.17;;;;;;;-0.54;100.00;99355.09;5092894;28;20488;-73
2021/12/27 10:57:43;;;;;;;15.20;10.27;;;;;;;-0.42;100.00;99359.16;5092605;28;20174;-73
2021/12/27 11:00:30;;;;;;;13.70;11.17;;;;;;;-0.39;100.00;99349.78;5092802;28;20439;-73
2021/12/27 11:02:58;;;;;;;14.27;11.23;;;;;;;-0.39;100.00;99344.41;5092821;28;20297;-73
2021/12/27 11:05:26;;;;;;;12.60;10.63;;;;;;;-0.38;100.00;99354.06;5091077;28;20451;-73
2021/12/27 11:07:59;;;;;;;13.50;11.27;;;;;;;-0.36;100.00;99349.22;5092422;28;20444;-73
2021/12/27 11:10:26;;;;;;;14.70;11.47;;;;;;;-0.31;100.00;99354.59;5092407;28;20408;-73
2021/12/27 11:12:51;;;;;;;13.57;11.57;;;;;;;-0.30;100.00;99350.84;5092306;28;20443;-73
2021/12/27 11:15:17;;;;;;;12.60;10.43;;;;;;;-0.27;100.00;99353.00;5091922;28;20902;-73
2021/12/27 11:17:44;;;;;;;16.20;10.13;;;;;;;-0.18;100.00;99356.75;5092316;28;20177;-73
2021/12/27 11:20:11;;;;;;;19.20;10.50;;;;;;;-0.12;100.00;99360.25;5092180;28;20416;-73
2021/12/27 11:22:46;;;;;;;11.47;10.27;;;;;;;0.02;100.00;99366.72;5091949;28;20662;-73